Terminal Aerodrome Forecast
Issued by NWS

Home | Current Version | Previous Version | Text Only | Print | Product List | Glossary On
Versions: 1 2 3 4 5 6 7 8 9 10 11 12 13 14 15
072
FTUS44 KSJT 281123
TAFJCT
TAF
KJCT 281123Z 2812/2912 15011KT P6SM OVC020
     FM281600 16013G20KT P6SM OVC025
     FM282000 14013G20KT P6SM BKN040
     FM290300 15010KT P6SM VCTS SCT025CB BKN100
     FM290900 22007KT P6SM SCT025 BKN250=

USA.gov is the U.S. government's official web portal to all federal, state and local government web resources and services.